KORD/ORD METAR and TAF weather

Enter ICAO airport designator
Station Type Date Time Source
KORD METAR 2020/09/19 17:51 UTC NOAA

KORD 191751Z 00000KT 10SM FEW047 17/03 A3038 RMK AO2 SLP287 T01720028 10172 20089 58011 $


Station Type Date Time Source
KORD Decoded METAR 2020/09/19 17:51 UTC NOAA

CHICAGO O'HARE INTERNATIONAL, IL, United States (KORD) 41-59N 087-55W 200M
Sep 19, 2020 - 01:51 PM EDT / 2020.09.19 1751 UTC
Wind: Calm:0
Visibility: 10 mile(s):0
Sky conditions: mostly clear
Temperature: 63.0 F (17.2 C)
Dew Point: 37.0 F (2.8 C)
Relative Humidity: 38%
Pressure (altimeter): 30.38 in. Hg (1028 hPa)
Pressure tendency: 0.03 inches (1.1 hPa) lower than three hours ago
ob: KORD 191751Z 00000KT 10SM FEW047 17/03 A3038 RMK AO2 SLP287 T01720028 10172 20089 58011
cycle: 18

Station Type Date Time Source
KORD TAF 2020/09/19 18:24 UTC NOAA

TAF KORD 191722Z 1918/2024 17006KT P6SM SKC
FM192100 10009KT P6SM SKC
FM200400 14005KT P6SM SKC
FM201400 15009KT P6SM SCT100

Example: see airport list